Decoded Metar for K1S5 ( in ) (IATA:) | Meteo·Mobile Aviation Weather
aviador You're here:

K1S5 Decoded Metar

in
Report Time2018-12-14 12:55:00
UTC Time2018-12-14 12:52:44
Flight Rules vfr VFR
WindCalm
Visibility9999 m
Phenomena:N/A
Clouds:N/A
Expected CloudBase > 800 ft AGL from Temp-Dew spread
CeilingNone
Temp01°C
Dew Point-1°C (87% RH)
AAT-1.1°C
QNH1014 hPa
Raw Report
K1S5 141255Z AUTO 00000KT 10SM CLR 01/M01 A2994 RMK AO2
T00121006=

Extra information for K1S5:More info

Social comments